createdAt,value
2018-06-10T00:00:29.368Z,12.90
2018-06-10T00:01:29.452Z,12.90
2018-06-10T00:02:29.337Z,12.90
2018-06-10T00:03:29.456Z,12.90
2018-06-10T00:04:29.363Z,12.90
2018-06-10T00:05:29.400Z,12.90
2018-06-10T00:06:29.399Z,12.90
2018-06-10T00:07:29.431Z,12.90
2018-06-10T00:08:29.382Z,12.90
2018-06-10T00:09:29.341Z,12.90
2018-06-10T00:10:29.338Z,16.50
2018-06-10T00:11:29.355Z,16.50
2018-06-10T00:12:29.407Z,16.50
2018-06-10T00:13:29.371Z,16.50
2018-06-10T00:14:29.353Z,16.50
2018-06-10T00:15:29.409Z,16.50
2018-06-10T00:16:29.417Z,16.50
2018-06-10T00:17:29.414Z,16.50
2018-06-10T00:18:29.338Z,16.50
2018-06-10T00:19:29.340Z,16.50
2018-06-10T00:20:29.302Z,12.20
2018-06-10T00:21:29.367Z,12.20
2018-06-10T00:22:29.396Z,12.20
2018-06-10T00:23:29.400Z,12.20
2018-06-10T00:24:29.311Z,12.20
2018-06-10T00:25:29.392Z,12.20
2018-06-10T00:26:29.351Z,12.20
2018-06-10T00:27:29.390Z,12.20
2018-06-10T00:28:29.353Z,12.20
2018-06-10T00:29:29.405Z,12.20
2018-06-10T00:30:29.320Z,12.70
2018-06-10T00:31:29.334Z,12.70
2018-06-10T00:32:29.370Z,12.70
2018-06-10T00:33:29.369Z,12.70
2018-06-10T00:34:29.371Z,12.70
2018-06-10T00:35:29.270Z,12.70
2018-06-10T00:36:29.310Z,12.70
2018-06-10T00:37:29.370Z,12.70
2018-06-10T00:38:29.337Z,12.70
2018-06-10T00:39:29.370Z,12.70
2018-06-10T00:40:29.427Z,11.90
2018-06-10T00:41:29.426Z,11.90
2018-06-10T00:42:29.366Z,11.90
2018-06-10T00:43:29.356Z,11.90
2018-06-10T00:44:29.359Z,11.90
2018-06-10T00:45:29.355Z,11.90
2018-06-10T00:46:29.429Z,11.90
2018-06-10T00:47:29.357Z,11.90
2018-06-10T00:48:29.376Z,11.90
2018-06-10T00:49:29.318Z,11.90
2018-06-10T00:50:29.408Z,13.00
2018-06-10T00:51:29.320Z,13.00
2018-06-10T00:52:29.421Z,13.00
2018-06-10T00:53:29.421Z,13.00
2018-06-10T00:54:29.424Z,13.00
2018-06-10T00:55:29.303Z,13.00
2018-06-10T00:56:29.328Z,13.00
2018-06-10T00:57:29.414Z,13.00
2018-06-10T00:58:29.305Z,13.00
2018-06-10T00:59:29.370Z,13.00
2018-06-10T01:00:29.469Z,13.60
2018-06-10T01:01:29.412Z,13.60
2018-06-10T01:02:29.469Z,13.60
2018-06-10T01:03:29.402Z,13.60
2018-06-10T01:04:29.444Z,13.60
2018-06-10T01:05:29.374Z,13.60
2018-06-10T01:06:29.463Z,13.60
2018-06-10T01:07:29.491Z,13.60
2018-06-10T01:08:29.437Z,13.60
2018-06-10T01:09:29.478Z,13.60
2018-06-10T01:10:29.480Z,12.40
2018-06-10T01:11:29.471Z,12.40
2018-06-10T01:12:29.413Z,12.40
2018-06-10T01:13:29.419Z,12.40
2018-06-10T01:14:29.464Z,12.40
2018-06-10T01:15:29.379Z,12.40
2018-06-10T01:16:29.371Z,12.40
2018-06-10T01:17:29.478Z,12.40
2018-06-10T01:18:29.421Z,12.40
2018-06-10T01:19:29.443Z,12.40
2018-06-10T01:20:29.400Z,13.00
2018-06-10T01:21:29.308Z,13.00
2018-06-10T01:22:29.367Z,13.00
2018-06-10T01:23:29.368Z,13.00
2018-06-10T01:24:29.422Z,13.00
2018-06-10T01:25:29.447Z,13.00
2018-06-10T01:26:29.306Z,13.00
2018-06-10T01:27:29.348Z,13.00
2018-06-10T01:28:29.407Z,13.00
2018-06-10T01:29:29.406Z,13.00
2018-06-10T01:30:29.323Z,13.00
2018-06-10T01:31:29.355Z,13.00
2018-06-10T01:32:29.358Z,13.00
2018-06-10T01:33:29.330Z,13.00
2018-06-10T01:34:29.448Z,13.00
2018-06-10T01:35:29.436Z,13.00
2018-06-10T01:36:29.417Z,13.00
2018-06-10T01:37:29.450Z,13.00
2018-06-10T01:38:29.449Z,13.00
2018-06-10T01:39:29.418Z,13.00
2018-06-10T01:40:29.471Z,19.00
2018-06-10T01:41:29.479Z,19.00
2018-06-10T01:42:29.472Z,19.00
2018-06-10T01:43:29.456Z,19.00
2018-06-10T01:44:29.437Z,19.00
2018-06-10T01:45:29.469Z,19.00
2018-06-10T01:46:29.489Z,19.00
2018-06-10T01:47:29.398Z,19.00
2018-06-10T01:48:29.430Z,19.00
2018-06-10T01:49:29.400Z,19.00
2018-06-10T01:50:29.394Z,14.00
2018-06-10T01:51:29.460Z,14.00
2018-06-10T01:52:29.393Z,14.00
2018-06-10T01:53:29.398Z,14.00
2018-06-10T01:54:29.391Z,14.00
2018-06-10T01:55:29.399Z,14.00
2018-06-10T01:56:29.464Z,14.00
2018-06-10T01:57:29.402Z,14.00
2018-06-10T01:58:29.466Z,14.00
2018-06-10T01:59:29.398Z,14.00
2018-06-10T02:00:29.480Z,14.30
2018-06-10T02:01:29.404Z,14.30
2018-06-10T02:02:29.405Z,14.30
2018-06-10T02:03:29.404Z,14.30
2018-06-10T02:04:29.409Z,14.30
2018-06-10T02:05:29.440Z,14.30
2018-06-10T02:06:29.486Z,14.30
2018-06-10T02:07:29.408Z,14.30
2018-06-10T02:08:29.363Z,14.30
2018-06-10T02:09:29.489Z,14.30
2018-06-10T02:10:29.419Z,14.10
2018-06-10T02:11:29.501Z,14.10
2018-06-10T02:12:29.505Z,14.10
2018-06-10T02:13:29.548Z,14.10
2018-06-10T02:14:29.544Z,14.10
2018-06-10T02:15:29.481Z,14.10
2018-06-10T02:16:29.494Z,14.10
2018-06-10T02:17:29.527Z,14.10
2018-06-10T02:18:29.513Z,14.10
2018-06-10T02:19:29.514Z,14.10
2018-06-10T02:20:29.454Z,18.60
2018-06-10T02:21:29.457Z,18.60
2018-06-10T02:22:29.523Z,18.60
2018-06-10T02:23:29.414Z,18.60
2018-06-10T02:24:29.467Z,18.60
2018-06-10T02:25:29.455Z,18.60
2018-06-10T02:26:29.466Z,18.60
2018-06-10T02:27:29.494Z,18.60
2018-06-10T02:28:29.433Z,18.60
2018-06-10T02:29:29.489Z,18.60
2018-06-10T02:30:29.514Z,17.80
2018-06-10T02:31:29.555Z,17.80
2018-06-10T02:32:29.433Z,17.80
2018-06-10T02:33:29.469Z,17.80
2018-06-10T02:34:29.532Z,17.80
2018-06-10T02:35:29.478Z,17.80
2018-06-10T02:36:29.506Z,17.80
2018-06-10T02:37:29.534Z,17.80
2018-06-10T02:38:29.466Z,17.80
2018-06-10T02:39:29.479Z,17.80
2018-06-10T02:40:29.460Z,14.80
2018-06-10T02:41:29.480Z,14.80
2018-06-10T02:42:29.472Z,14.80
2018-06-10T02:43:29.502Z,14.80
2018-06-10T02:44:29.785Z,14.80
2018-06-10T02:45:29.528Z,14.80
2018-06-10T02:46:29.425Z,14.80
2018-06-10T02:47:29.512Z,14.80
2018-06-10T02:48:29.570Z,14.80
2018-06-10T02:49:29.447Z,14.80
2018-06-10T02:50:29.442Z,21.99
2018-06-10T02:51:29.523Z,21.99
2018-06-10T02:52:29.443Z,21.99
2018-06-10T02:53:29.442Z,21.99
2018-06-10T02:54:29.509Z,21.99
2018-06-10T02:55:29.443Z,21.99
2018-06-10T02:56:29.459Z,21.99
2018-06-10T02:57:29.444Z,21.99
2018-06-10T02:58:29.407Z,21.99
2018-06-10T02:59:29.491Z,21.99
2018-06-10T03:00:29.575Z,16.99
2018-06-10T03:01:29.515Z,16.99
2018-06-10T03:02:29.484Z,16.99
2018-06-10T03:03:29.542Z,16.99
2018-06-10T03:04:29.478Z,16.99
2018-06-10T03:05:29.455Z,16.99
2018-06-10T03:06:29.577Z,16.99
2018-06-10T03:07:29.551Z,16.99
2018-06-10T03:08:29.423Z,16.99
2018-06-10T03:09:29.603Z,16.99
2018-06-10T03:10:29.453Z,18.80
2018-06-10T03:11:29.517Z,18.80
2018-06-10T03:12:29.515Z,18.80
2018-06-10T03:13:29.519Z,18.80
2018-06-10T03:14:29.446Z,18.80
2018-06-10T03:15:29.518Z,18.80
2018-06-10T03:16:29.448Z,18.80
2018-06-10T03:17:29.519Z,18.80
2018-06-10T03:18:29.450Z,18.80
2018-06-10T03:19:29.527Z,18.80
2018-06-10T03:20:29.559Z,23.30
2018-06-10T03:21:29.558Z,23.30
2018-06-10T03:22:29.550Z,23.30
2018-06-10T03:23:29.490Z,23.30
2018-06-10T03:24:29.536Z,23.30
2018-06-10T03:25:29.452Z,23.30
2018-06-10T03:26:29.586Z,23.30
2018-06-10T03:27:29.470Z,23.30
2018-06-10T03:28:29.461Z,23.30
2018-06-10T03:29:29.503Z,23.30
2018-06-10T03:30:29.478Z,17.80
2018-06-10T03:31:29.532Z,17.80
2018-06-10T03:32:29.546Z,17.80
2018-06-10T03:33:29.497Z,17.80
2018-06-10T03:34:29.571Z,17.80
2018-06-10T03:35:29.537Z,17.80
2018-06-10T03:36:29.456Z,17.80
2018-06-10T03:37:29.441Z,17.80
2018-06-10T03:38:29.589Z,17.80
2018-06-10T03:39:29.523Z,17.80
2018-06-10T03:40:29.606Z,19.20
2018-06-10T03:41:29.544Z,19.20
2018-06-10T03:42:29.467Z,19.20
2018-06-10T03:43:29.482Z,19.20
2018-06-10T03:44:29.576Z,19.20
2018-06-10T03:45:29.469Z,19.20
2018-06-10T03:46:29.517Z,19.20
2018-06-10T03:47:29.569Z,19.20
2018-06-10T03:48:29.552Z,19.20
2018-06-10T03:49:29.574Z,19.20
2018-06-10T03:50:29.473Z,20.99
2018-06-10T03:51:29.544Z,20.99
2018-06-10T03:52:29.470Z,20.99
2018-06-10T03:53:29.542Z,20.99
2018-06-10T03:54:29.467Z,20.99
2018-06-10T03:55:29.542Z,20.99
2018-06-10T03:56:29.477Z,20.99
2018-06-10T03:57:29.472Z,20.99
2018-06-10T03:58:29.549Z,20.99
2018-06-10T03:59:29.546Z,20.99
2018-06-10T04:00:29.487Z,22.30
2018-06-10T04:01:29.565Z,22.30
2018-06-10T04:02:29.489Z,22.30
2018-06-10T04:03:29.488Z,22.30
2018-06-10T04:04:29.493Z,22.30
2018-06-10T04:05:29.490Z,22.30
2018-06-10T04:06:29.489Z,22.30
2018-06-10T04:07:29.563Z,22.30
2018-06-10T04:08:29.527Z,22.30
2018-06-10T04:09:29.568Z,22.30
2018-06-10T04:10:29.553Z,22.30
2018-06-10T04:11:29.509Z,20.80
2018-06-10T04:12:29.567Z,20.80
2018-06-10T04:13:29.598Z,20.80
2018-06-10T04:14:29.493Z,20.80
2018-06-10T04:15:29.460Z,20.80
2018-06-10T04:16:29.568Z,20.80
2018-06-10T04:17:29.498Z,20.80
2018-06-10T04:18:29.588Z,20.80
2018-06-10T04:19:29.458Z,20.80
2018-06-10T04:20:29.572Z,20.80
2018-06-10T04:21:29.496Z,25.10
2018-06-10T04:22:29.626Z,25.10
2018-06-10T04:23:29.570Z,25.10
2018-06-10T04:24:29.587Z,25.10
2018-06-10T04:25:29.544Z,25.10
2018-06-10T04:26:29.567Z,25.10
2018-06-10T04:27:29.544Z,25.10
2018-06-10T04:28:29.548Z,25.10
2018-06-10T04:29:29.595Z,25.10
2018-06-10T04:30:29.594Z,25.10
2018-06-10T04:31:29.499Z,22.30
2018-06-10T04:32:29.499Z,22.30
2018-06-10T04:33:29.480Z,22.30
2018-06-10T04:34:29.497Z,22.30
2018-06-10T04:35:29.576Z,22.30
2018-06-10T04:36:29.496Z,22.30
2018-06-10T04:37:29.607Z,22.30
2018-06-10T04:38:29.573Z,22.30
2018-06-10T04:39:29.548Z,22.30
2018-06-10T04:40:29.580Z,22.30
2018-06-10T04:41:29.502Z,19.70
2018-06-10T04:42:29.511Z,19.70
2018-06-10T04:43:29.607Z,19.70
2018-06-10T04:44:29.488Z,19.70
2018-06-10T04:45:29.520Z,19.70
2018-06-10T04:46:29.553Z,19.70
2018-06-10T04:47:29.484Z,19.70
2018-06-10T04:48:29.585Z,19.70
2018-06-10T04:49:29.491Z,19.70
2018-06-10T04:50:29.628Z,19.70
2018-06-10T04:51:29.507Z,20.00
2018-06-10T04:52:29.580Z,20.00
2018-06-10T04:53:29.533Z,20.00
2018-06-10T04:54:29.492Z,20.00
2018-06-10T04:55:29.512Z,20.00
2018-06-10T04:56:29.547Z,20.00
2018-06-10T04:57:29.588Z,20.00
2018-06-10T04:58:29.507Z,20.00
2018-06-10T04:59:29.518Z,20.00
2018-06-10T05:00:29.499Z,20.00
2018-06-10T05:01:29.588Z,20.10
2018-06-10T05:02:29.516Z,20.10
2018-06-10T05:03:29.497Z,20.10
2018-06-10T05:04:29.575Z,20.10
2018-06-10T05:05:29.612Z,20.10
2018-06-10T05:06:29.564Z,20.10
2018-06-10T05:07:29.564Z,20.10
2018-06-10T05:08:29.553Z,20.10
2018-06-10T05:09:29.629Z,20.10
2018-06-10T05:10:29.556Z,20.10
2018-06-10T05:11:29.500Z,21.30
2018-06-10T05:12:29.569Z,21.30
2018-06-10T05:13:29.584Z,21.30
2018-06-10T05:14:29.528Z,21.30
2018-06-10T05:15:29.598Z,21.30
2018-06-10T05:16:29.577Z,21.30
2018-06-10T05:17:29.573Z,21.30
2018-06-10T05:18:29.644Z,21.30
2018-06-10T05:19:29.578Z,21.30
2018-06-10T05:20:29.593Z,21.30
2018-06-10T05:21:29.607Z,15.80
2018-06-10T05:22:29.581Z,15.80
2018-06-10T05:23:29.645Z,15.80
2018-06-10T05:24:29.636Z,15.80
2018-06-10T05:25:29.514Z,15.80
2018-06-10T05:26:29.592Z,15.80
2018-06-10T05:27:29.584Z,15.80
2018-06-10T05:28:29.581Z,15.80
2018-06-10T05:29:29.555Z,15.80
2018-06-10T05:30:29.580Z,15.80
2018-06-10T05:31:29.638Z,14.40
2018-06-10T05:32:29.656Z,14.40
2018-06-10T05:33:29.586Z,14.40
2018-06-10T05:34:29.644Z,14.40
2018-06-10T05:35:29.538Z,14.40
2018-06-10T05:36:29.647Z,14.40
2018-06-10T05:37:29.625Z,14.40
2018-06-10T05:38:29.660Z,14.40
2018-06-10T05:39:29.636Z,14.40
2018-06-10T05:40:29.626Z,14.40
2018-06-10T05:41:29.551Z,14.10
2018-06-10T05:42:29.555Z,14.10
2018-06-10T05:43:29.515Z,14.10
2018-06-10T05:44:29.555Z,14.10
2018-06-10T05:45:29.626Z,14.10
2018-06-10T05:46:29.626Z,14.10
2018-06-10T05:47:29.561Z,14.10
2018-06-10T05:48:29.629Z,14.10
2018-06-10T05:49:29.625Z,14.10
2018-06-10T05:50:29.557Z,14.10
2018-06-10T05:51:29.670Z,12.80
2018-06-10T05:52:29.583Z,12.80
2018-06-10T05:53:29.624Z,12.80
2018-06-10T05:54:29.598Z,12.80
2018-06-10T05:55:29.596Z,12.80
2018-06-10T05:56:29.631Z,12.80
2018-06-10T05:57:29.630Z,12.80
2018-06-10T05:58:29.670Z,12.80
2018-06-10T05:59:29.643Z,12.80
2018-06-10T06:00:29.597Z,12.80
2018-06-10T06:01:29.612Z,12.40
2018-06-10T06:02:29.558Z,12.40
2018-06-10T06:03:29.594Z,12.40
2018-06-10T06:04:29.633Z,12.40
2018-06-10T06:05:29.679Z,12.40
2018-06-10T06:06:29.576Z,12.40
2018-06-10T06:07:29.693Z,12.40
2018-06-10T06:08:29.558Z,12.40
2018-06-10T06:09:29.607Z,12.40
2018-06-10T06:10:29.675Z,12.40
2018-06-10T06:11:29.679Z,12.80
2018-06-10T06:12:29.611Z,12.80
2018-06-10T06:13:29.618Z,12.80
2018-06-10T06:14:29.608Z,12.80
2018-06-10T06:15:29.642Z,12.80
2018-06-10T06:16:29.607Z,12.80
2018-06-10T06:17:29.603Z,12.80
2018-06-10T06:18:29.673Z,12.80
2018-06-10T06:19:29.608Z,12.80
2018-06-10T06:20:29.675Z,12.80
2018-06-10T06:21:29.561Z,13.50
2018-06-10T06:22:29.613Z,13.50
2018-06-10T06:23:29.567Z,13.50
2018-06-10T06:24:29.625Z,13.50
2018-06-10T06:25:29.554Z,13.50
2018-06-10T06:26:29.679Z,13.50
2018-06-10T06:27:29.577Z,13.50
2018-06-10T06:28:29.629Z,13.50
2018-06-10T06:29:29.589Z,13.50
2018-06-10T06:30:29.658Z,13.50
2018-06-10T06:31:29.571Z,13.10
2018-06-10T06:32:29.572Z,13.10
2018-06-10T06:33:29.623Z,13.10
2018-06-10T06:34:29.630Z,13.10
2018-06-10T06:35:29.685Z,13.10
2018-06-10T06:36:29.592Z,13.10
2018-06-10T06:37:29.623Z,13.10
2018-06-10T06:38:29.687Z,13.10
2018-06-10T06:39:29.641Z,13.10
2018-06-10T06:40:29.663Z,13.10
2018-06-10T06:41:29.662Z,12.50
2018-06-10T06:42:29.658Z,12.50
2018-06-10T06:43:29.662Z,12.50
2018-06-10T06:44:29.595Z,12.50
2018-06-10T06:45:29.661Z,12.50
2018-06-10T06:46:29.628Z,12.50
2018-06-10T06:47:29.597Z,12.50
2018-06-10T06:48:29.681Z,12.50
2018-06-10T06:49:29.665Z,12.50
2018-06-10T06:50:29.595Z,12.50
2018-06-10T06:51:29.665Z,14.20
2018-06-10T06:52:29.750Z,14.20
2018-06-10T06:53:29.573Z,14.20
2018-06-10T06:54:29.681Z,14.20
2018-06-10T06:55:29.573Z,14.20
2018-06-10T06:56:29.645Z,14.20
2018-06-10T06:57:29.637Z,14.20
2018-06-10T06:58:29.612Z,14.20
2018-06-10T06:59:29.593Z,14.20
2018-06-10T07:00:29.642Z,14.20
2018-06-10T07:01:29.679Z,12.40
2018-06-10T07:02:29.560Z,12.40
2018-06-10T07:03:29.666Z,12.40
2018-06-10T07:04:29.681Z,12.40
2018-06-10T07:05:29.607Z,12.40
2018-06-10T07:06:29.677Z,12.40
2018-06-10T07:07:29.611Z,12.40
2018-06-10T07:08:29.610Z,12.40
2018-06-10T07:09:29.614Z,12.40
2018-06-10T07:10:29.684Z,12.40
2018-06-10T07:11:29.584Z,13.70
2018-06-10T07:12:29.554Z,13.70
2018-06-10T07:13:29.597Z,13.70
2018-06-10T07:14:29.672Z,13.70
2018-06-10T07:15:29.629Z,13.70
2018-06-10T07:16:29.606Z,13.70
2018-06-10T07:17:29.670Z,13.70
2018-06-10T07:18:29.670Z,13.70
2018-06-10T07:19:29.675Z,13.70
2018-06-10T07:20:29.627Z,13.70
2018-06-10T07:21:29.609Z,12.70
2018-06-10T07:22:29.591Z,12.70
2018-06-10T07:23:29.695Z,12.70
2018-06-10T07:24:29.588Z,12.70
2018-06-10T07:25:29.665Z,12.70
2018-06-10T07:26:29.658Z,12.70
2018-06-10T07:27:29.668Z,12.70
2018-06-10T07:28:29.710Z,12.70
2018-06-10T07:29:29.712Z,12.70
2018-06-10T07:30:29.701Z,12.70
2018-06-10T07:31:29.692Z,13.60
2018-06-10T07:32:29.625Z,13.60
2018-06-10T07:33:29.628Z,13.60
2018-06-10T07:34:29.694Z,13.60
2018-06-10T07:35:29.635Z,13.60
2018-06-10T07:36:29.697Z,13.60
2018-06-10T07:37:29.630Z,13.60
2018-06-10T07:38:29.633Z,13.60
2018-06-10T07:39:29.631Z,13.60
2018-06-10T07:40:29.669Z,13.60
2018-06-10T07:41:29.727Z,12.40
2018-06-10T07:42:29.741Z,12.40
2018-06-10T07:43:29.705Z,12.40
2018-06-10T07:44:29.718Z,12.40
2018-06-10T07:45:29.624Z,12.40
2018-06-10T07:46:29.638Z,12.40
2018-06-10T07:47:29.722Z,12.40
2018-06-10T07:48:29.688Z,12.40
2018-06-10T07:49:29.611Z,12.40
2018-06-10T07:50:29.675Z,12.40
2018-06-10T07:51:29.576Z,13.80
2018-06-10T07:52:29.603Z,13.80
2018-06-10T07:53:29.607Z,13.80
2018-06-10T07:54:29.561Z,13.80
2018-06-10T07:55:29.701Z,13.80
2018-06-10T07:56:29.687Z,13.80
2018-06-10T07:57:29.601Z,13.80
2018-06-10T07:58:29.669Z,13.80
2018-06-10T07:59:29.581Z,13.80
2018-06-10T08:00:29.608Z,13.80
2018-06-10T08:01:29.715Z,11.90
2018-06-10T08:02:29.740Z,11.90
2018-06-10T08:03:29.635Z,11.90
2018-06-10T08:04:29.756Z,11.90
2018-06-10T08:05:29.835Z,11.90
2018-06-10T08:06:29.638Z,11.90
2018-06-10T08:07:29.743Z,11.90
2018-06-10T08:08:29.685Z,11.90
2018-06-10T08:09:29.642Z,11.90
2018-06-10T08:10:29.642Z,11.90
2018-06-10T08:11:29.699Z,14.30
2018-06-10T08:12:29.719Z,14.30
2018-06-10T08:13:29.758Z,14.30
2018-06-10T08:14:29.719Z,14.30
2018-06-10T08:15:29.644Z,14.30
2018-06-10T08:16:29.721Z,14.30
2018-06-10T08:17:29.727Z,14.30
2018-06-10T08:18:29.690Z,14.30
2018-06-10T08:19:29.642Z,14.30
2018-06-10T08:20:29.689Z,14.30
2018-06-10T08:21:29.724Z,15.70
2018-06-10T08:22:29.723Z,15.70
2018-06-10T08:23:29.692Z,15.70
2018-06-10T08:24:29.746Z,15.70
2018-06-10T08:25:29.748Z,15.70
2018-06-10T08:26:29.762Z,15.70
2018-06-10T08:27:29.647Z,15.70
2018-06-10T08:28:29.690Z,15.70
2018-06-10T08:29:29.805Z,15.70
2018-06-10T08:30:29.704Z,15.70
2018-06-10T08:31:29.747Z,13.50
2018-06-10T08:32:29.736Z,13.50
2018-06-10T08:33:29.693Z,13.50
2018-06-10T08:34:29.674Z,13.50
2018-06-10T08:35:29.741Z,13.50
2018-06-10T08:36:29.667Z,13.50
2018-06-10T08:37:29.728Z,13.50
2018-06-10T08:38:29.740Z,13.50
2018-06-10T08:39:29.675Z,13.50
2018-06-10T08:40:29.740Z,13.50
2018-06-10T08:41:29.758Z,14.80
2018-06-10T08:42:29.678Z,14.80
2018-06-10T08:43:29.666Z,14.80
2018-06-10T08:44:29.648Z,14.80
2018-06-10T08:45:29.710Z,14.80
2018-06-10T08:46:29.749Z,14.80
2018-06-10T08:47:29.723Z,14.80
2018-06-10T08:48:29.649Z,14.80
2018-06-10T08:49:29.745Z,14.80
2018-06-10T08:50:29.702Z,14.80
2018-06-10T08:51:29.665Z,15.30
2018-06-10T08:52:29.767Z,15.30
2018-06-10T08:53:29.648Z,15.30
2018-06-10T08:54:29.749Z,15.30
2018-06-10T08:55:29.770Z,15.30
2018-06-10T08:56:29.747Z,15.30
2018-06-10T08:57:29.749Z,15.30
2018-06-10T08:58:29.678Z,15.30
2018-06-10T08:59:29.719Z,15.30
2018-06-10T09:00:29.779Z,15.30
2018-06-10T09:01:29.686Z,14.30
2018-06-10T09:02:29.757Z,14.30
2018-06-10T09:03:29.760Z,14.30
2018-06-10T09:04:29.757Z,14.30
2018-06-10T09:05:29.688Z,14.30
2018-06-10T09:06:29.758Z,14.30
2018-06-10T09:07:29.689Z,14.30
2018-06-10T09:08:29.714Z,14.30
2018-06-10T09:09:29.758Z,14.30
2018-06-10T09:10:29.763Z,14.30
2018-06-10T09:11:29.777Z,13.10
2018-06-10T09:12:29.663Z,13.10
2018-06-10T09:13:29.728Z,13.10
2018-06-10T09:14:29.696Z,13.10
2018-06-10T09:15:29.764Z,13.10
2018-06-10T09:16:29.820Z,13.10
2018-06-10T09:17:29.665Z,13.10
2018-06-10T09:18:29.781Z,13.10
2018-06-10T09:19:29.726Z,13.10
2018-06-10T09:20:29.729Z,13.10
2018-06-10T09:21:29.760Z,14.40
2018-06-10T09:22:29.765Z,14.40
2018-06-10T09:23:29.734Z,14.40
2018-06-10T09:24:29.740Z,14.40
2018-06-10T09:25:29.733Z,14.40
2018-06-10T09:26:29.772Z,14.40
2018-06-10T09:27:29.772Z,14.40
2018-06-10T09:28:29.689Z,14.40
2018-06-10T09:29:29.752Z,14.40
2018-06-10T09:30:29.744Z,14.40
2018-06-10T09:31:29.703Z,12.80
2018-06-10T09:32:29.811Z,12.80
2018-06-10T09:33:29.777Z,12.80
2018-06-10T09:34:29.710Z,12.80
2018-06-10T09:35:29.814Z,12.80
2018-06-10T09:36:29.713Z,12.80
2018-06-10T09:37:29.775Z,12.80
2018-06-10T09:38:29.779Z,12.80
2018-06-10T09:39:29.778Z,12.80
2018-06-10T09:40:29.715Z,12.80
2018-06-10T09:41:29.777Z,12.90
2018-06-10T09:42:29.788Z,12.90
2018-06-10T09:43:29.816Z,12.90
2018-06-10T09:44:29.814Z,12.90
2018-06-10T09:45:29.737Z,12.90
2018-06-10T09:46:29.687Z,12.90
2018-06-10T09:47:29.738Z,12.90
2018-06-10T09:48:29.763Z,12.90
2018-06-10T09:49:29.710Z,12.90
2018-06-10T09:50:29.706Z,12.90
2018-06-10T09:51:29.747Z,12.10
2018-06-10T09:52:29.825Z,12.10
2018-06-10T09:53:29.708Z,12.10
2018-06-10T09:54:29.748Z,12.10
2018-06-10T09:55:29.840Z,12.10
2018-06-10T09:56:29.812Z,12.10
2018-06-10T09:57:29.823Z,12.10
2018-06-10T09:58:29.756Z,12.10
2018-06-10T09:59:29.791Z,12.10
2018-06-10T10:00:29.805Z,12.10
2018-06-10T10:01:29.790Z,9.90
2018-06-10T10:02:29.791Z,9.90
2018-06-10T10:03:29.725Z,9.90
2018-06-10T10:04:29.724Z,9.90
2018-06-10T10:05:29.729Z,9.90
2018-06-10T10:06:29.764Z,9.90
2018-06-10T10:07:29.731Z,9.90
2018-06-10T10:08:29.793Z,9.90
2018-06-10T10:09:29.728Z,9.90
2018-06-10T10:10:29.800Z,9.90
2018-06-10T10:11:29.849Z,10.10
2018-06-10T10:12:29.757Z,10.10
2018-06-10T10:13:29.757Z,10.10
2018-06-10T10:14:29.836Z,10.10
2018-06-10T10:15:29.801Z,10.10
2018-06-10T10:16:29.758Z,10.10
2018-06-10T10:17:29.804Z,10.10
2018-06-10T10:18:29.826Z,10.10
2018-06-10T10:19:29.803Z,10.10
2018-06-10T10:20:29.786Z,10.10
2018-06-10T10:21:29.847Z,8.30
2018-06-10T10:22:29.806Z,8.30
2018-06-10T10:23:29.742Z,8.30
2018-06-10T10:24:29.784Z,8.30
2018-06-10T10:25:29.809Z,8.30
2018-06-10T10:26:29.707Z,8.30
2018-06-10T10:27:29.708Z,8.30
2018-06-10T10:28:29.714Z,8.30
2018-06-10T10:29:29.730Z,8.30
2018-06-10T10:30:29.792Z,8.30
2018-06-10T10:31:29.798Z,8.30
2018-06-10T10:32:29.676Z,8.00
2018-06-10T10:33:29.733Z,8.00
2018-06-10T10:34:29.735Z,8.00
2018-06-10T10:35:29.747Z,8.00
2018-06-10T10:36:29.709Z,8.00
2018-06-10T10:37:29.681Z,8.00
2018-06-10T10:38:29.705Z,8.00
2018-06-10T10:39:29.791Z,8.00
2018-06-10T10:40:29.765Z,8.00
2018-06-10T10:41:29.799Z,8.00
2018-06-10T10:42:29.871Z,7.80
2018-06-10T10:43:29.785Z,7.80
2018-06-10T10:44:29.745Z,7.80
2018-06-10T10:45:29.771Z,7.80
2018-06-10T10:46:29.813Z,7.80
2018-06-10T10:47:29.686Z,7.80
2018-06-10T10:48:29.804Z,7.80
2018-06-10T10:49:29.816Z,7.80
2018-06-10T10:50:29.754Z,7.80
2018-06-10T10:51:29.726Z,7.80
2018-06-10T10:52:29.862Z,6.90
2018-06-10T10:53:29.780Z,6.90
2018-06-10T10:54:29.724Z,6.90
2018-06-10T10:55:29.830Z,6.90
2018-06-10T10:56:29.723Z,6.90
2018-06-10T10:57:29.815Z,6.90
2018-06-10T10:58:29.836Z,6.90
2018-06-10T10:59:29.804Z,6.90
2018-06-10T11:00:29.786Z,6.90
2018-06-10T11:01:29.750Z,6.90
2018-06-10T11:02:29.759Z,7.60
2018-06-10T11:03:29.717Z,7.60
2018-06-10T11:04:29.824Z,7.60
2018-06-10T11:05:29.788Z,7.60
2018-06-10T11:06:29.826Z,7.60
2018-06-10T11:07:29.720Z,7.60
2018-06-10T11:08:29.739Z,7.60
2018-06-10T11:09:29.829Z,7.60
2018-06-10T11:10:29.830Z,7.60
2018-06-10T11:11:29.742Z,7.60
2018-06-10T11:12:29.818Z,7.50
2018-06-10T11:13:29.837Z,7.50
2018-06-10T11:14:29.778Z,7.50
2018-06-10T11:15:29.774Z,7.50
2018-06-10T11:16:29.795Z,7.50
2018-06-10T11:17:29.872Z,7.50
2018-06-10T11:18:29.803Z,7.50
2018-06-10T11:19:29.817Z,7.50
2018-06-10T11:20:29.819Z,7.50
2018-06-10T11:21:29.864Z,7.50
2018-06-10T11:22:29.845Z,9.40
2018-06-10T11:23:29.753Z,9.40
2018-06-10T11:24:29.877Z,9.40
2018-06-10T11:25:29.861Z,9.40
2018-06-10T11:26:29.883Z,9.40
2018-06-10T11:27:29.752Z,9.40
2018-06-10T11:28:29.847Z,9.40
2018-06-10T11:29:29.816Z,9.40
2018-06-10T11:30:29.816Z,9.40
2018-06-10T11:31:29.884Z,9.40
2018-06-10T11:32:29.835Z,8.80
2018-06-10T11:33:29.781Z,8.80
2018-06-10T11:34:29.808Z,8.80
2018-06-10T11:35:29.837Z,8.80
2018-06-10T11:36:29.754Z,8.80
2018-06-10T11:37:29.787Z,8.80
2018-06-10T11:38:29.803Z,8.80
2018-06-10T11:39:29.742Z,8.80
2018-06-10T11:40:29.809Z,8.80
2018-06-10T11:41:29.853Z,8.80
2018-06-10T11:42:30.039Z,9.40
2018-06-10T11:43:29.853Z,9.40
2018-06-10T11:44:29.794Z,9.40
2018-06-10T11:45:29.870Z,9.40
2018-06-10T11:46:29.796Z,9.40
2018-06-10T11:47:29.798Z,9.40
2018-06-10T11:48:29.868Z,9.40
2018-06-10T11:49:29.838Z,9.40
2018-06-10T11:50:29.794Z,9.40
2018-06-10T11:51:29.865Z,9.40
2018-06-10T11:52:29.799Z,8.40
2018-06-10T11:53:29.822Z,8.40
2018-06-10T11:54:29.817Z,8.40
2018-06-10T11:55:29.736Z,8.40
2018-06-10T11:56:29.802Z,8.40
2018-06-10T11:57:29.817Z,8.40
2018-06-10T11:58:29.744Z,8.40
2018-06-10T11:59:29.859Z,8.40
2018-06-10T12:00:29.865Z,8.40
2018-06-10T12:01:29.862Z,8.40
2018-06-10T12:02:29.958Z,9.10
2018-06-10T12:03:29.837Z,9.10
2018-06-10T12:04:29.899Z,9.10
2018-06-10T12:05:29.902Z,9.10
2018-06-10T12:06:29.793Z,9.10
2018-06-10T12:07:29.776Z,9.10
2018-06-10T12:08:29.833Z,9.10
2018-06-10T12:09:29.876Z,9.10
2018-06-10T12:10:29.897Z,9.10
2018-06-10T12:11:29.780Z,9.10
2018-06-10T12:12:29.834Z,11.10
2018-06-10T12:13:29.818Z,11.10
2018-06-10T12:14:29.879Z,11.10
2018-06-10T12:15:29.841Z,11.10
2018-06-10T12:16:29.782Z,11.10
2018-06-10T12:17:29.806Z,11.10
2018-06-10T12:18:29.907Z,11.10
2018-06-10T12:19:29.844Z,11.10
2018-06-10T12:20:29.802Z,11.10
2018-06-10T12:21:29.907Z,11.10
2018-06-10T12:22:29.859Z,9.00
2018-06-10T12:23:29.869Z,9.00
2018-06-10T12:24:29.839Z,9.00
2018-06-10T12:25:29.811Z,9.00
2018-06-10T12:26:29.792Z,9.00
2018-06-10T12:27:29.809Z,9.00
2018-06-10T12:28:29.792Z,9.00
2018-06-10T12:29:29.818Z,9.00
2018-06-10T12:30:29.752Z,9.00
2018-06-10T12:31:29.794Z,9.00
2018-06-10T12:32:29.872Z,8.20
2018-06-10T12:33:29.908Z,8.20
2018-06-10T12:34:29.892Z,8.20
2018-06-10T12:35:29.848Z,8.20
2018-06-10T12:36:29.893Z,8.20
2018-06-10T12:37:29.923Z,8.20
2018-06-10T12:38:29.872Z,8.20
2018-06-10T12:39:29.849Z,8.20
2018-06-10T12:40:29.896Z,8.20
2018-06-10T12:41:29.865Z,8.20
2018-06-10T12:42:29.876Z,8.10
2018-06-10T12:43:29.870Z,8.10
2018-06-10T12:44:29.885Z,8.10
2018-06-10T12:45:29.916Z,8.10
2018-06-10T12:46:29.933Z,8.10
2018-06-10T12:47:29.823Z,8.10
2018-06-10T12:48:29.917Z,8.10
2018-06-10T12:49:29.859Z,8.10
2018-06-10T12:50:29.811Z,8.10
2018-06-10T12:51:29.858Z,8.10
2018-06-10T12:52:29.924Z,7.40
2018-06-10T12:53:29.945Z,7.40
2018-06-10T12:54:29.877Z,7.40
2018-06-10T12:55:29.935Z,7.40
2018-06-10T12:56:29.884Z,7.40
2018-06-10T12:57:29.987Z,7.40